createdAt,value
2022-08-03T00:02:21.196Z,18.80
2022-08-03T00:04:49.637Z,18.80
2022-08-03T00:07:18.407Z,18.60
2022-08-03T00:09:48.091Z,18.70
2022-08-03T00:12:16.670Z,18.70
2022-08-03T00:14:45.551Z,18.70
2022-08-03T00:17:13.982Z,18.60
2022-08-03T00:19:42.830Z,18.40
2022-08-03T00:22:11.868Z,18.30
2022-08-03T00:24:40.199Z,18.30
2022-08-03T00:27:10.191Z,18.30
2022-08-03T00:29:57.350Z,18.30
2022-08-03T00:32:27.689Z,18.30
2022-08-03T00:34:57.547Z,18.40
2022-08-03T00:37:40.866Z,18.50
2022-08-03T00:40:12.446Z,18.50
2022-08-03T00:42:57.536Z,18.50
2022-08-03T00:45:28.120Z,18.50
2022-08-03T00:47:57.692Z,18.40
2022-08-03T00:50:28.428Z,18.40
2022-08-03T00:53:01.901Z,18.50
2022-08-03T00:55:31.397Z,18.50
2022-08-03T00:58:06.481Z,18.50
2022-08-03T01:00:38.843Z,18.40
2022-08-03T01:03:08.371Z,18.40
2022-08-03T01:05:50.864Z,18.50
2022-08-03T01:08:24.254Z,18.50
2022-08-03T01:11:03.717Z,18.40
2022-08-03T01:14:01.102Z,18.40
2022-08-03T01:16:37.498Z,18.20
2022-08-03T01:19:28.875Z,18.20
2022-08-03T01:22:12.573Z,18.20
2022-08-03T01:24:51.991Z,18.30
2022-08-03T01:27:24.363Z,18.20
2022-08-03T01:30:05.238Z,18.20
2022-08-03T01:32:59.326Z,18.10
2022-08-03T01:35:35.516Z,18.10
2022-08-03T01:38:11.712Z,18.00
2022-08-03T01:40:42.462Z,17.90
2022-08-03T01:43:55.437Z,17.80
2022-08-03T01:46:08.661Z,17.80
2022-08-03T01:48:38.701Z,17.90
2022-08-03T01:51:09.031Z,18.00
2022-08-03T01:53:41.589Z,17.90
2022-08-03T01:56:11.246Z,18.00
2022-08-03T01:58:41.852Z,17.90
2022-08-03T02:01:13.652Z,17.90
2022-08-03T02:04:00.565Z,17.80
2022-08-03T02:07:02.188Z,17.80
2022-08-03T02:09:23.412Z,17.80
2022-08-03T02:11:53.216Z,17.80
2022-08-03T02:14:23.355Z,17.80
2022-08-03T02:16:55.210Z,17.90
2022-08-03T02:19:25.466Z,17.70
2022-08-03T02:21:56.391Z,17.70
2022-08-03T02:24:29.606Z,17.80
2022-08-03T02:26:59.467Z,17.70
2022-08-03T02:29:38.792Z,17.30
2022-08-03T02:32:13.578Z,17.30
2022-08-03T02:34:44.622Z,17.30
2022-08-03T02:37:14.713Z,17.40
2022-08-03T02:39:44.956Z,17.30
2022-08-03T02:42:15.493Z,17.40
2022-08-03T02:44:48.488Z,17.40
2022-08-03T02:47:21.369Z,17.50
2022-08-03T02:49:52.645Z,17.40
2022-08-03T02:52:24.275Z,17.40
2022-08-03T02:54:57.299Z,17.30
2022-08-03T02:57:28.220Z,17.30
2022-08-03T02:59:59.217Z,17.30
2022-08-03T03:02:30.088Z,17.30
2022-08-03T03:05:55.015Z,17.30
2022-08-03T03:07:53.172Z,17.40
2022-08-03T03:10:24.245Z,17.30
2022-08-03T03:12:56.258Z,17.20
2022-08-03T03:15:26.479Z,17.30
2022-08-03T03:17:58.706Z,17.20
2022-08-03T03:20:30.618Z,17.20
2022-08-03T03:23:01.310Z,17.20
2022-08-03T03:25:31.735Z,17.10
2022-08-03T03:28:02.082Z,17.10
2022-08-03T03:30:34.587Z,17.10
2022-08-03T03:33:05.093Z,17.10
2022-08-03T03:35:38.953Z,17.10
2022-08-03T03:38:08.658Z,17.10
2022-08-03T03:40:37.566Z,17.00
2022-08-03T03:43:09.034Z,17.00
2022-08-03T03:45:38.283Z,16.90
2022-08-03T03:48:09.166Z,16.90
2022-08-03T03:50:40.917Z,16.80
2022-08-03T03:53:12.129Z,16.80
2022-08-03T03:55:59.793Z,16.80
2022-08-03T03:58:29.522Z,16.80
2022-08-03T04:00:57.873Z,16.90
2022-08-03T04:03:27.721Z,16.90
2022-08-03T04:06:24.888Z,16.90
2022-08-03T04:09:10.609Z,17.00
2022-08-03T04:11:42.645Z,17.10
2022-08-03T04:14:14.737Z,17.10
2022-08-03T04:16:47.438Z,17.10
2022-08-03T04:19:25.518Z,17.20
2022-08-03T04:21:59.212Z,17.10
2022-08-03T04:24:35.019Z,16.90
2022-08-03T04:27:08.099Z,16.70
2022-08-03T04:29:44.896Z,16.80
2022-08-03T04:32:18.550Z,16.90
2022-08-03T04:34:49.141Z,17.00
2022-08-03T04:37:25.675Z,17.30
2022-08-03T04:39:57.719Z,17.40
2022-08-03T04:42:28.821Z,17.60
2022-08-03T04:45:01.454Z,17.70
2022-08-03T04:47:32.231Z,17.70
2022-08-03T04:50:03.864Z,17.70
2022-08-03T04:52:34.727Z,17.90
2022-08-03T04:55:04.000Z,18.20
2022-08-03T04:57:33.578Z,18.40
2022-08-03T05:00:06.048Z,18.60
2022-08-03T05:02:36.252Z,18.70
2022-08-03T05:05:09.148Z,18.90
2022-08-03T05:07:42.784Z,19.00
2022-08-03T05:10:15.157Z,19.10
2022-08-03T05:12:45.972Z,19.10
2022-08-03T05:15:16.575Z,19.10
2022-08-03T05:17:45.472Z,19.20
2022-08-03T05:20:16.558Z,19.20
2022-08-03T05:22:47.384Z,19.20
2022-08-03T05:25:17.317Z,19.40
2022-08-03T05:27:47.901Z,19.40
2022-08-03T05:30:29.866Z,19.60
2022-08-03T05:33:03.702Z,19.90
2022-08-03T05:36:02.594Z,20.10
2022-08-03T05:38:28.941Z,20.10
2022-08-03T05:41:23.518Z,20.10
2022-08-03T05:43:51.540Z,20.30
2022-08-03T05:46:20.585Z,20.70
2022-08-03T05:48:48.800Z,20.90
2022-08-03T05:51:19.052Z,21.20
2022-08-03T05:53:47.378Z,21.30
2022-08-03T05:56:17.007Z,21.60
2022-08-03T05:58:48.737Z,21.90
2022-08-03T06:01:18.462Z,21.80
2022-08-03T06:03:47.056Z,21.90
2022-08-03T06:06:16.078Z,22.20
2022-08-03T06:08:48.927Z,22.40
2022-08-03T06:11:17.869Z,22.50
2022-08-03T06:13:47.690Z,22.70
2022-08-03T06:16:16.607Z,22.90
2022-08-03T06:18:46.024Z,23.00
2022-08-03T06:21:16.166Z,23.60
2022-08-03T06:23:54.743Z,23.50
2022-08-03T06:26:24.218Z,23.80
2022-08-03T06:28:54.365Z,24.20
2022-08-03T06:31:26.211Z,24.10
2022-08-03T06:34:33.790Z,23.90
2022-08-03T06:36:58.545Z,24.50
2022-08-03T06:39:32.221Z,24.30
2022-08-03T06:42:00.579Z,24.40
2022-08-03T06:44:28.941Z,24.60
2022-08-03T06:46:57.144Z,24.60
2022-08-03T06:49:25.879Z,25.00
2022-08-03T06:52:04.935Z,25.40
2022-08-03T06:54:38.187Z,25.80
2022-08-03T06:57:08.292Z,26.30
2022-08-03T07:00:09.957Z,26.90
2022-08-03T07:02:26.802Z,27.10
2022-08-03T07:04:57.234Z,26.60
2022-08-03T07:07:26.382Z,26.90
2022-08-03T07:09:56.638Z,27.20
2022-08-03T07:12:27.635Z,27.20
2022-08-03T07:15:00.304Z,27.30
2022-08-03T07:17:29.852Z,27.30
2022-08-03T07:19:58.306Z,27.80
2022-08-03T07:22:26.679Z,27.70
2022-08-03T07:24:57.129Z,28.00
2022-08-03T07:27:27.042Z,28.70
2022-08-03T07:29:55.991Z,28.90
2022-08-03T07:32:25.263Z,29.00
2022-08-03T07:34:58.445Z,29.20
2022-08-03T07:37:29.687Z,29.70
2022-08-03T07:40:00.289Z,29.60
2022-08-03T07:42:28.987Z,30.00
2022-08-03T07:44:58.272Z,29.90
2022-08-03T07:47:35.123Z,30.40
2022-08-03T07:50:05.851Z,30.50
2022-08-03T07:52:49.382Z,30.50
2022-08-03T07:55:20.270Z,30.50
2022-08-03T07:57:49.458Z,30.50
2022-08-03T08:00:20.383Z,30.70
2022-08-03T08:02:49.115Z,30.20
2022-08-03T08:05:18.177Z,30.10
2022-08-03T08:07:51.287Z,30.30
2022-08-03T08:10:22.248Z,30.10
2022-08-03T08:12:50.838Z,30.80
2022-08-03T08:15:19.307Z,31.30
2022-08-03T08:17:49.503Z,31.30
2022-08-03T08:20:28.160Z,30.70
2022-08-03T08:23:01.230Z,30.80
2022-08-03T08:25:34.167Z,31.10
2022-08-03T08:28:22.172Z,31.50
2022-08-03T08:30:52.939Z,31.80
2022-08-03T08:33:23.443Z,32.30
2022-08-03T08:35:54.139Z,32.00
2022-08-03T08:38:22.979Z,32.70
2022-08-03T08:40:56.855Z,33.10
2022-08-03T08:43:25.287Z,33.40
2022-08-03T08:45:55.962Z,33.50
2022-08-03T08:48:28.520Z,33.30
2022-08-03T08:50:58.441Z,33.40
2022-08-03T08:53:32.373Z,32.70
2022-08-03T08:56:03.852Z,32.00
2022-08-03T08:58:38.792Z,32.30
2022-08-03T09:01:07.737Z,32.10
2022-08-03T09:03:36.807Z,31.90
2022-08-03T09:06:05.802Z,31.70
2022-08-03T09:08:34.708Z,31.40
2022-08-03T09:11:04.684Z,30.90
2022-08-03T09:13:34.982Z,31.30
2022-08-03T09:16:14.542Z,31.40
2022-08-03T09:18:44.210Z,31.00
2022-08-03T09:21:34.870Z,30.90
2022-08-03T09:24:10.273Z,31.10
2022-08-03T09:26:53.700Z,31.20
2022-08-03T09:29:24.113Z,31.80
2022-08-03T09:32:02.492Z,32.20
2022-08-03T09:34:31.136Z,32.60
2022-08-03T09:36:59.586Z,32.70
2022-08-03T09:39:41.379Z,32.90
2022-08-03T09:42:14.413Z,33.00
2022-08-03T09:44:46.115Z,32.90
2022-08-03T09:47:16.461Z,32.60
2022-08-03T09:49:58.660Z,32.60
2022-08-03T09:52:49.297Z,33.10
2022-08-03T09:56:32.696Z,33.40
2022-08-03T09:58:10.866Z,33.60
2022-08-03T10:00:56.240Z,33.80
2022-08-03T10:03:25.366Z,33.90
2022-08-03T10:05:59.072Z,33.70
2022-08-03T10:08:28.549Z,33.90
2022-08-03T10:10:58.673Z,34.20
2022-08-03T10:13:28.926Z,34.10
2022-08-03T10:16:24.016Z,33.60
2022-08-03T10:18:45.452Z,33.90
2022-08-03T10:21:20.742Z,34.20
2022-08-03T10:23:49.999Z,34.30
2022-08-03T10:26:22.420Z,34.50
2022-08-03T10:28:54.968Z,34.30
2022-08-03T10:31:24.866Z,34.60
2022-08-03T10:33:58.380Z,34.00
2022-08-03T10:36:32.782Z,34.00
2022-08-03T10:39:04.251Z,34.00
2022-08-03T10:41:48.168Z,33.60
2022-08-03T10:44:20.431Z,33.50
2022-08-03T10:46:50.578Z,33.90
2022-08-03T10:49:25.478Z,33.60
2022-08-03T10:52:09.682Z,33.80
2022-08-03T10:55:10.884Z,34.20
2022-08-03T10:57:49.632Z,34.60
2022-08-03T11:00:22.515Z,33.70
2022-08-03T11:03:14.081Z,34.40
2022-08-03T11:05:44.256Z,34.10
2022-08-03T11:08:34.802Z,34.30
2022-08-03T11:11:20.487Z,34.00
2022-08-03T11:14:02.736Z,33.90
2022-08-03T11:16:35.072Z,34.00
2022-08-03T11:19:09.143Z,34.30
2022-08-03T11:21:58.051Z,34.20
2022-08-03T11:25:00.078Z,35.20
2022-08-03T11:27:30.900Z,35.00
2022-08-03T11:30:01.459Z,35.30
2022-08-03T11:33:03.129Z,35.00
2022-08-03T11:35:33.683Z,34.50
2022-08-03T11:38:08.550Z,35.30
2022-08-03T11:40:39.107Z,36.00
2022-08-03T11:43:09.034Z,36.60
2022-08-03T11:45:38.295Z,36.40
2022-08-03T11:48:18.235Z,36.50
2022-08-03T11:50:46.496Z,37.00
2022-08-03T11:53:19.716Z,37.20
2022-08-03T11:55:49.901Z,37.20
2022-08-03T11:59:01.386Z,37.20
2022-08-03T12:01:11.416Z,37.40
2022-08-03T12:03:41.139Z,37.40
2022-08-03T12:06:11.610Z,37.80
2022-08-03T12:08:42.154Z,38.20
2022-08-03T12:11:12.087Z,37.70
2022-08-03T12:14:27.079Z,36.30
2022-08-03T12:16:32.097Z,37.00
2022-08-03T12:19:04.891Z,36.30
2022-08-03T12:21:33.599Z,34.80
2022-08-03T12:24:03.984Z,34.40
2022-08-03T12:26:58.473Z,34.20
2022-08-03T12:29:28.753Z,33.60
2022-08-03T12:31:57.919Z,33.00
2022-08-03T12:34:47.636Z,33.00
2022-08-03T12:37:22.838Z,33.20
2022-08-03T12:40:03.007Z,33.20
2022-08-03T12:42:35.413Z,32.90
2022-08-03T12:45:25.655Z,32.80
2022-08-03T12:47:56.659Z,32.10
2022-08-03T12:50:32.107Z,32.00
2022-08-03T12:53:01.722Z,32.40
2022-08-03T12:55:56.337Z,32.50
2022-08-03T12:58:34.915Z,32.50
2022-08-03T13:01:10.011Z,32.70
2022-08-03T13:03:45.621Z,32.80
2022-08-03T13:06:21.533Z,33.00
2022-08-03T13:08:51.686Z,33.20
2022-08-03T13:11:50.598Z,33.40
2022-08-03T13:14:16.822Z,33.20
2022-08-03T13:16:49.374Z,33.00
2022-08-03T13:19:18.289Z,32.80
2022-08-03T13:22:01.836Z,32.70
2022-08-03T13:24:33.789Z,32.50
2022-08-03T13:28:01.432Z,32.40
2022-08-03T13:29:52.903Z,32.40
2022-08-03T13:32:21.672Z,32.50
2022-08-03T13:34:50.415Z,32.60
2022-08-03T13:37:20.301Z,32.70
2022-08-03T13:39:58.829Z,32.60
2022-08-03T13:42:29.638Z,32.90
2022-08-03T13:44:58.397Z,32.90
2022-08-03T13:47:26.827Z,32.90
2022-08-03T13:50:01.105Z,32.60
2022-08-03T13:52:33.397Z,32.40
2022-08-03T13:55:02.007Z,32.10
2022-08-03T13:58:11.756Z,32.00
2022-08-03T14:00:26.422Z,32.10
2022-08-03T14:03:09.136Z,31.90
2022-08-03T14:05:41.697Z,31.60
2022-08-03T14:08:12.383Z,31.20
2022-08-03T14:10:43.016Z,31.40
2022-08-03T14:13:16.867Z,31.50
2022-08-03T14:15:50.095Z,31.30
2022-08-03T14:18:28.943Z,31.30
2022-08-03T14:21:06.022Z,31.50
2022-08-03T14:23:37.533Z,31.40
2022-08-03T14:26:06.750Z,31.50
2022-08-03T14:28:35.777Z,31.40
2022-08-03T14:31:04.626Z,31.40
2022-08-03T14:33:37.022Z,31.30
2022-08-03T14:36:06.204Z,31.30
2022-08-03T14:38:39.206Z,31.10
2022-08-03T14:41:07.436Z,31.10
2022-08-03T14:43:40.896Z,31.10
2022-08-03T14:46:29.425Z,31.10
2022-08-03T14:50:26.547Z,31.20
2022-08-03T14:51:51.313Z,31.30
2022-08-03T14:54:23.592Z,31.40
2022-08-03T14:56:52.154Z,31.30
2022-08-03T14:59:20.391Z,31.30
2022-08-03T15:02:03.397Z,31.50
2022-08-03T15:04:36.507Z,31.60
2022-08-03T15:07:05.276Z,31.60
2022-08-03T15:09:35.033Z,31.40
2022-08-03T15:12:03.358Z,31.20
2022-08-03T15:14:32.349Z,31.30
2022-08-03T15:17:03.757Z,31.40
2022-08-03T15:20:03.359Z,31.50
2022-08-03T15:22:34.687Z,31.50
2022-08-03T15:26:03.644Z,31.50
2022-08-03T15:28:03.411Z,31.40
2022-08-03T15:30:36.041Z,31.30
2022-08-03T15:33:04.854Z,31.30
2022-08-03T15:35:33.545Z,31.30
2022-08-03T15:38:04.022Z,31.10
2022-08-03T15:40:37.272Z,31.00
2022-08-03T15:43:05.646Z,30.90
2022-08-03T15:45:36.097Z,30.60
2022-08-03T15:48:05.687Z,30.70
2022-08-03T15:50:34.043Z,30.70
2022-08-03T15:53:02.600Z,30.60
2022-08-03T15:55:31.757Z,30.70
2022-08-03T15:59:07.661Z,30.70
2022-08-03T16:00:49.674Z,30.70
2022-08-03T16:03:18.128Z,30.70
2022-08-03T16:05:46.463Z,30.70
2022-08-03T16:08:15.301Z,30.80
2022-08-03T16:10:46.701Z,30.80
2022-08-03T16:13:18.196Z,30.80
2022-08-03T16:15:48.719Z,30.90
2022-08-03T16:18:17.563Z,31.00
2022-08-03T16:20:46.467Z,30.90
2022-08-03T16:23:16.385Z,30.80
2022-08-03T16:25:49.028Z,30.80
2022-08-03T16:28:19.895Z,30.90
2022-08-03T16:30:48.549Z,31.00
2022-08-03T16:33:18.136Z,30.90
2022-08-03T16:35:49.604Z,30.80
2022-08-03T16:38:19.561Z,30.80
2022-08-03T16:40:51.799Z,30.80
2022-08-03T16:43:23.282Z,30.90
2022-08-03T16:45:52.204Z,30.80
2022-08-03T16:48:20.637Z,30.80
2022-08-03T16:50:49.635Z,30.60
2022-08-03T16:53:33.173Z,30.50
2022-08-03T16:56:10.578Z,30.50
2022-08-03T16:58:42.928Z,30.40
2022-08-03T17:01:20.781Z,30.30
2022-08-03T17:04:02.312Z,30.30
2022-08-03T17:06:35.346Z,30.40
2022-08-03T17:09:08.920Z,30.50
2022-08-03T17:11:46.505Z,30.40
2022-08-03T17:14:22.069Z,30.40
2022-08-03T17:16:54.122Z,30.40
2022-08-03T17:19:26.204Z,30.40
2022-08-03T17:22:01.297Z,30.30
2022-08-03T17:24:33.771Z,30.40
2022-08-03T17:27:08.570Z,30.30
2022-08-03T17:29:45.203Z,30.20
2022-08-03T17:32:21.454Z,30.20
2022-08-03T17:34:50.448Z,30.00
2022-08-03T17:37:49.994Z,30.00
2022-08-03T17:40:17.375Z,30.00
2022-08-03T17:42:50.547Z,30.00
2022-08-03T17:45:22.657Z,29.90
2022-08-03T17:47:57.123Z,29.80
2022-08-03T17:50:35.598Z,29.80
2022-08-03T17:53:24.553Z,29.80
2022-08-03T17:56:07.764Z,29.70
2022-08-03T17:58:59.886Z,29.70
2022-08-03T18:02:11.608Z,29.50
2022-08-03T18:04:55.391Z,29.40
2022-08-03T18:07:40.982Z,29.30
2022-08-03T18:10:12.101Z,29.20
2022-08-03T18:12:51.964Z,29.00
2022-08-03T18:15:28.605Z,29.00
2022-08-03T18:18:07.452Z,29.00
2022-08-03T18:20:42.084Z,28.40
2022-08-03T18:23:24.676Z,28.40
2022-08-03T18:26:06.803Z,28.40
2022-08-03T18:28:38.306Z,28.10
2022-08-03T18:31:07.450Z,27.90
2022-08-03T18:34:18.615Z,27.60
2022-08-03T18:36:30.367Z,27.50
2022-08-03T18:39:02.421Z,27.20
2022-08-03T18:41:34.295Z,27.20
2022-08-03T18:44:06.721Z,27.10
2022-08-03T18:46:47.997Z,26.90
2022-08-03T18:49:29.609Z,26.90
2022-08-03T18:52:04.701Z,26.70
2022-08-03T18:55:02.298Z,26.70
2022-08-03T18:57:43.366Z,26.70
2022-08-03T19:00:15.743Z,26.60
2022-08-03T19:02:50.635Z,26.60
2022-08-03T19:05:23.693Z,26.60
2022-08-03T19:08:20.188Z,26.40
2022-08-03T19:11:06.281Z,26.60
2022-08-03T19:13:50.381Z,26.70
2022-08-03T19:16:27.441Z,26.70
2022-08-03T19:18:56.958Z,26.70
2022-08-03T19:21:30.143Z,26.60
2022-08-03T19:24:05.605Z,26.60
2022-08-03T19:26:39.719Z,26.60
2022-08-03T19:29:14.868Z,26.60
2022-08-03T19:31:58.856Z,26.60
2022-08-03T19:34:29.731Z,26.60
2022-08-03T19:37:06.067Z,26.50
2022-08-03T19:39:36.143Z,26.40
2022-08-03T19:42:18.432Z,26.50
2022-08-03T19:44:56.213Z,26.30
2022-08-03T19:47:30.260Z,26.20
2022-08-03T19:50:05.921Z,26.00
2022-08-03T19:52:49.620Z,25.90
2022-08-03T19:55:19.334Z,25.80
2022-08-03T19:57:49.648Z,25.80
2022-08-03T20:00:26.096Z,25.70
2022-08-03T20:02:55.454Z,25.70
2022-08-03T20:05:24.582Z,25.80
2022-08-03T20:07:59.946Z,25.40
2022-08-03T20:10:29.328Z,25.00
2022-08-03T20:12:58.246Z,25.00
2022-08-03T20:15:31.497Z,25.00
2022-08-03T20:18:00.905Z,25.00
2022-08-03T20:20:31.953Z,25.00
2022-08-03T20:23:06.829Z,25.00
2022-08-03T20:28:33.229Z,25.00
2022-08-03T20:31:02.307Z,25.10
2022-08-03T20:33:46.314Z,25.10
2022-08-03T20:36:18.656Z,25.00
2022-08-03T20:38:51.938Z,25.00
2022-08-03T20:41:20.953Z,25.10
2022-08-03T20:43:49.656Z,25.10
2022-08-03T20:46:31.963Z,25.00
2022-08-03T20:49:05.628Z,24.90
2022-08-03T20:51:52.413Z,24.90
2022-08-03T20:54:29.681Z,24.90
2022-08-03T20:57:00.740Z,24.70
2022-08-03T20:59:46.874Z,24.70
2022-08-03T21:02:29.083Z,24.70
2022-08-03T21:05:03.814Z,24.50
2022-08-03T21:08:04.547Z,24.40
2022-08-03T21:10:33.406Z,24.50
2022-08-03T21:13:06.879Z,24.90
2022-08-03T21:13:17.473Z,24.40
2022-08-03T21:16:11.823Z,24.40
2022-08-03T21:18:43.785Z,24.10
2022-08-03T21:21:14.857Z,23.60
2022-08-03T21:23:48.847Z,23.20
2022-08-03T21:26:20.733Z,23.30
2022-08-03T21:28:50.580Z,23.20
2022-08-03T21:31:25.691Z,23.30
2022-08-03T21:33:56.434Z,23.50
2022-08-03T21:36:27.212Z,23.60
2022-08-03T21:38:57.395Z,23.20
2022-08-03T21:41:28.952Z,22.80
2022-08-03T21:43:58.037Z,22.30
2022-08-03T21:46:28.891Z,22.60
2022-08-03T21:50:05.845Z,22.80
2022-08-03T21:51:51.406Z,22.90
2022-08-03T21:54:22.263Z,23.00
2022-08-03T21:56:55.847Z,23.10
2022-08-03T21:59:26.670Z,22.90
2022-08-03T22:01:58.525Z,23.00
2022-08-03T22:04:50.411Z,23.00
2022-08-03T22:07:16.097Z,23.00
2022-08-03T22:09:51.089Z,23.00
2022-08-03T22:12:24.012Z,23.00
2022-08-03T22:15:00.191Z,23.10
2022-08-03T22:17:55.439Z,23.20
2022-08-03T22:20:20.678Z,23.10
2022-08-03T22:22:56.011Z,22.80
2022-08-03T22:25:28.935Z,22.20
2022-08-03T22:28:00.871Z,22.30
2022-08-03T22:30:29.820Z,22.40
2022-08-03T22:32:59.450Z,22.50
2022-08-03T22:35:28.686Z,22.50
2022-08-03T22:38:00.091Z,22.70
2022-08-03T22:40:29.034Z,22.70
2022-08-03T22:43:00.069Z,22.70
2022-08-03T22:46:07.979Z,22.70
2022-08-03T22:48:19.660Z,22.60
2022-08-03T22:50:48.910Z,22.60
2022-08-03T22:53:19.429Z,22.60
2022-08-03T22:55:49.390Z,22.70
2022-08-03T22:58:21.123Z,22.80
2022-08-03T23:00:54.221Z,22.70
2022-08-03T23:03:25.492Z,22.60
2022-08-03T23:06:15.830Z,22.40
2022-08-03T23:08:47.221Z,22.30
2022-08-03T23:11:18.670Z,22.10
2022-08-03T23:13:53.321Z,22.20
2022-08-03T23:16:29.313Z,22.30
2022-08-03T23:19:13.120Z,22.30
2022-08-03T23:22:00.672Z,22.30
2022-08-03T23:24:35.768Z,22.30
2022-08-03T23:27:04.787Z,22.30
2022-08-03T23:29:36.068Z,22.00
2022-08-03T23:32:05.771Z,21.90
2022-08-03T23:34:52.043Z,21.90
2022-08-03T23:37:21.775Z,21.90
2022-08-03T23:39:50.839Z,21.90
2022-08-03T23:42:21.404Z,21.80
2022-08-03T23:44:55.740Z,21.60
2022-08-03T23:47:24.822Z,21.80
2022-08-03T23:50:14.285Z,22.00
2022-08-03T23:52:54.173Z,22.00
2022-08-03T23:55:35.297Z,21.80
2022-08-03T23:58:12.470Z,21.70
